Time;durP1;ratioP1;P1;durP2;ratioP2;P2;SDS_P1;SDS_P2;PMS_P1;PMS_P2;Temp;Humidity;BMP_temperature;BMP_pressure;BME280_temperature;BME280_humidity;BME280_pressure;Samples;Min_cycle;Max_cycle;Signal;HPM_P1;HPM_P2
2022/12/13 00:01:21;;;;;;;20.27;11.43;;;;;;;;;;5080026;28;20040;-75
2022/12/13 00:04:07;;;;;;;19.13;11.50;;;;;;;;;;5094366;28;20052;-73
2022/12/13 00:06:53;;;;;;;19.63;11.77;;;;;;;;;;5081614;28;20024;-75
2022/12/13 00:09:41;;;;;;;19.80;11.95;;;;;;;;;;5094862;28;20144;-74
2022/12/13 00:12:26;;;;;;;18.25;11.73;;;;;;;;;;5094074;28;20034;-75
2022/12/13 00:15:12;;;;;;;20.13;11.63;;;;;;;;;;5095223;28;20395;-74
2022/12/13 00:17:58;;;;;;;19.42;11.45;;;;;;;;;;5094031;28;20031;-74
2022/12/13 00:20:43;;;;;;;20.42;11.95;;;;;;;;;;5093638;28;20019;-75
2022/12/13 00:23:29;;;;;;;19.05;11.45;;;;;;;;;;5094435;28;20519;-74
2022/12/13 00:26:15;;;;;;;19.27;12.57;;;;;;;;;;5078950;28;20026;-75
2022/12/13 00:29:02;;;;;;;19.73;12.18;;;;;;;;;;5081175;28;20016;-74
2022/12/13 00:31:48;;;;;;;21.73;10.98;;;;;;;;;;5094744;28;20073;-74
2022/12/13 00:34:33;;;;;;;19.65;11.90;;;;;;;;;;5094006;28;20043;-74
2022/12/13 00:37:19;;;;;;;18.00;10.68;;;;;;;;;;5093846;28;20042;-74
2022/12/13 00:40:05;;;;;;;21.15;11.77;;;;;;;;;;5078835;28;20432;-74
2022/12/13 00:42:50;;;;;;;20.13;11.23;;;;;;;;;;5080158;28;20073;-74
2022/12/13 00:45:37;;;;;;;17.88;10.60;;;;;;;;;;5093529;28;20441;-73
2022/12/13 00:48:22;;;;;;;18.40;10.55;;;;;;;;;;5093202;28;20059;-74
2022/12/13 00:51:09;;;;;;;17.35;10.32;;;;;;;;;;5094089;28;20035;-74
2022/12/13 00:53:54;;;;;;;18.75;11.00;;;;;;;;;;5093215;28;20026;-74
2022/12/13 00:56:40;;;;;;;18.65;10.85;;;;;;;;;;5093385;28;20020;-74
2022/12/13 00:59:26;;;;;;;16.38;9.73;;;;;;;;;;5093731;28;20077;-74
2022/12/13 01:02:11;;;;;;;19.00;10.10;;;;;;;;;;5092300;28;20047;-74
2022/12/13 01:04:58;;;;;;;17.63;10.15;;;;;;;;;;5093438;28;20031;-74
2022/12/13 01:07:44;;;;;;;16.92;10.32;;;;;;;;;;5078345;28;20024;-74
2022/12/13 01:10:29;;;;;;;17.80;9.98;;;;;;;;;;5093644;28;20050;-73
2022/12/13 01:13:15;;;;;;;18.25;10.32;;;;;;;;;;5093608;28;20521;-74
2022/12/13 01:16:02;;;;;;;17.02;9.75;;;;;;;;;;5078739;28;20439;-74
2022/12/13 01:18:47;;;;;;;17.10;9.65;;;;;;;;;;5092962;28;20339;-74
2022/12/13 01:21:33;;;;;;;15.68;9.48;;;;;;;;;;5079323;28;20031;-75
2022/12/13 01:24:20;;;;;;;19.15;11.00;;;;;;;;;;5079214;28;20137;-74
2022/12/13 01:27:05;;;;;;;19.60;10.93;;;;;;;;;;5091753;28;20377;-74
2022/12/13 01:29:51;;;;;;;18.48;10.55;;;;;;;;;;5074700;28;20021;-74
2022/12/13 01:32:36;;;;;;;16.48;9.80;;;;;;;;;;5092591;28;20024;-74
2022/12/13 01:35:22;;;;;;;18.02;10.38;;;;;;;;;;5077910;28;20020;-74
2022/12/13 01:38:08;;;;;;;17.42;9.90;;;;;;;;;;5078625;28;20029;-74
2022/12/13 01:40:57;;;;;;;19.55;10.32;;;;;;;;;;5093664;28;20434;-74
2022/12/13 01:43:42;;;;;;;17.40;10.18;;;;;;;;;;5078135;28;20028;-74
2022/12/13 01:46:29;;;;;;;19.85;11.05;;;;;;;;;;5094299;28;20013;-74
2022/12/13 01:49:16;;;;;;;19.23;10.55;;;;;;;;;;5078026;28;20039;-75
2022/12/13 01:52:03;;;;;;;19.90;11.00;;;;;;;;;;5096332;28;20020;-74
2022/12/13 01:54:51;;;;;;;17.80;10.35;;;;;;;;;;5089539;28;20027;-74
2022/12/13 01:57:38;;;;;;;19.80;10.73;;;;;;;;;;5102269;28;20461;-73
2022/12/13 02:00:25;;;;;;;20.58;10.93;;;;;;;;;;5101659;28;20284;-73
2022/12/13 02:03:11;;;;;;;19.65;10.95;;;;;;;;;;5102161;28;20438;-74
2022/12/13 02:06:03;;;;;;;18.92;11.07;;;;;;;;;;5093725;28;20086;-74
2022/12/13 02:08:49;;;;;;;18.60;10.20;;;;;;;;;;5080651;28;20020;-74
2022/12/13 02:11:36;;;;;;;18.85;11.10;;;;;;;;;;5079226;28;20024;-74
2022/12/13 02:14:21;;;;;;;18.63;10.30;;;;;;;;;;5093036;28;20413;-74
2022/12/13 02:17:21;;;;;;;17.48;10.43;;;;;;;;;;5101234;28;20028;-76
2022/12/13 02:20:09;;;;;;;19.08;10.40;;;;;;;;;;5080719;28;20109;-75
2022/12/13 02:22:58;;;;;;;19.85;10.80;;;;;;;;;;5088513;28;20016;-75
2022/12/13 02:25:59;;;;;;;18.30;10.73;;;;;;;;;;5102079;28;20511;-74
2022/12/13 02:28:58;;;;;;;18.58;10.65;;;;;;;;;;5090092;28;20438;-74
2022/12/13 02:32:10;;;;;;;18.30;10.55;;;;;;;;;;5085747;28;20028;-74
2022/12/13 02:35:05;;;;;;;21.17;10.98;;;;;;;;;;5073192;28;20051;-75
2022/12/13 02:38:09;;;;;;;20.75;11.55;;;;;;;;;;5081549;28;20016;-74
2022/12/13 02:41:04;;;;;;;21.48;11.05;;;;;;;;;;5096463;28;20012;-74
2022/12/13 02:44:01;;;;;;;20.98;10.73;;;;;;;;;;5081903;28;20024;-75
2022/12/13 02:47:07;;;;;;;21.77;11.20;;;;;;;;;;5095848;28;20028;-74
2022/12/13 02:49:54;;;;;;;19.75;10.80;;;;;;;;;;5096901;28;20457;-75
2022/12/13 02:52:41;;;;;;;20.60;10.88;;;;;;;;;;5095120;28;20016;-75
2022/12/13 02:55:27;;;;;;;21.55;11.55;;;;;;;;;;5081513;28;20028;-74
2022/12/13 02:58:15;;;;;;;22.48;11.43;;;;;;;;;;5081493;28;20047;-76
2022/12/13 03:01:16;;;;;;;18.92;11.40;;;;;;;;;;5095476;28;20115;-75
2022/12/13 03:04:15;;;;;;;19.50;10.77;;;;;;;;;;5094938;28;20028;-75
2022/12/13 03:07:00;;;;;;;19.40;10.93;;;;;;;;;;5081328;28;20027;-75
2022/12/13 03:09:49;;;;;;;20.05;10.52;;;;;;;;;;5095572;28;20358;-75
2022/12/13 03:15:58;;;;;;;17.80;10.10;;;;;;;;;;5096030;28;20027;-75
2022/12/13 03:18:45;;;;;;;18.67;10.10;;;;;;;;;;5095035;28;20048;-75
2022/12/13 03:21:42;;;;;;;18.58;10.25;;;;;;;;;;5094690;28;20025;-75
2022/12/13 03:24:27;;;;;;;18.13;10.02;;;;;;;;;;5094901;28;20476;-74
2022/12/13 03:27:13;;;;;;;19.48;10.25;;;;;;;;;;5080604;28;20055;-74
2022/12/13 03:29:58;;;;;;;16.30;10.00;;;;;;;;;;5095330;28;20391;-74
2022/12/13 03:32:44;;;;;;;17.38;9.80;;;;;;;;;;5080224;28;20077;-75
2022/12/13 03:35:30;;;;;;;19.05;10.63;;;;;;;;;;5080742;28;20034;-74
2022/12/13 03:38:16;;;;;;;19.17;10.27;;;;;;;;;;5080944;28;20020;-74
2022/12/13 03:41:03;;;;;;;18.23;10.50;;;;;;;;;;5113725;28;19996;-75
2022/12/13 03:43:49;;;;;;;20.77;11.00;;;;;;;;;;5098424;28;20042;-74
2022/12/13 03:46:35;;;;;;;20.52;10.82;;;;;;;;;;5081489;28;20046;-74
2022/12/13 03:49:20;;;;;;;20.23;11.48;;;;;;;;;;5094986;28;20025;-75
2022/12/13 03:52:06;;;;;;;18.88;10.32;;;;;;;;;;5080171;28;20141;-73
2022/12/13 03:54:52;;;;;;;20.33;10.63;;;;;;;;;;5094263;28;20111;-74
2022/12/13 03:57:37;;;;;;;17.45;10.20;;;;;;;;;;5095035;28;20077;-75
2022/12/13 04:00:23;;;;;;;19.02;10.75;;;;;;;;;;5094594;28;20157;-74
2022/12/13 04:03:08;;;;;;;18.90;10.35;;;;;;;;;;5093953;28;20408;-74
2022/12/13 04:05:54;;;;;;;18.80;10.05;;;;;;;;;;5094413;28;20485;-74
2022/12/13 04:08:40;;;;;;;16.73;9.75;;;;;;;;;;5094017;28;20060;-75
2022/12/13 04:14:29;;;;;;;19.98;10.50;;;;;;;;;;5094668;28;20443;-75
2022/12/13 04:17:15;;;;;;;19.08;10.70;;;;;;;;;;5080256;28;20438;-75
2022/12/13 04:20:01;;;;;;;20.10;10.77;;;;;;;;;;5080627;28;20046;-75
2022/12/13 04:22:46;;;;;;;20.85;11.73;;;;;;;;;;5094524;28;20335;-74
2022/12/13 04:25:32;;;;;;;18.10;10.80;;;;;;;;;;5094819;28;20031;-75
2022/12/13 04:28:17;;;;;;;21.45;11.20;;;;;;;;;;5094238;28;20054;-75
2022/12/13 04:31:03;;;;;;;18.23;10.93;;;;;;;;;;5093608;28;20460;-75
2022/12/13 04:33:48;;;;;;;22.83;12.15;;;;;;;;;;5093833;28;20024;-74
2022/12/13 04:36:34;;;;;;;20.98;11.13;;;;;;;;;;5079003;28;20012;-75
2022/12/13 04:39:20;;;;;;;18.13;10.85;;;;;;;;;;5093603;28;20008;-75
2022/12/13 04:42:05;;;;;;;21.27;11.55;;;;;;;;;;5079191;28;20017;-74
2022/12/13 04:44:51;;;;;;;20.17;10.85;;;;;;;;;;5093620;28;20085;-74
2022/12/13 04:47:36;;;;;;;19.80;11.25;;;;;;;;;;5094085;28;20019;-74
2022/12/13 04:50:22;;;;;;;23.52;11.40;;;;;;;;;;5079667;28;20024;-75
2022/12/13 04:53:12;;;;;;;19.23;10.52;;;;;;;;;;5093538;28;20020;-75
2022/12/13 04:55:58;;;;;;;20.73;11.50;;;;;;;;;;5080031;28;20024;-74
2022/12/13 04:58:44;;;;;;;20.10;11.57;;;;;;;;;;5078923;28;20016;-73
2022/12/13 05:01:30;;;;;;;23.02;12.27;;;;;;;;;;5092897;28;20044;-73
2022/12/13 05:04:15;;;;;;;21.77;11.77;;;;;;;;;;5093930;28;20030;-74
2022/12/13 05:07:01;;;;;;;20.98;11.35;;;;;;;;;;5092999;28;20515;-75
2022/12/13 05:09:46;;;;;;;22.10;12.00;;;;;;;;;;5093413;28;20454;-75
2022/12/13 05:12:32;;;;;;;23.02;11.80;;;;;;;;;;5093471;28;20094;-75
2022/12/13 05:15:18;;;;;;;22.15;11.95;;;;;;;;;;5093974;28;20020;-73
2022/12/13 05:18:04;;;;;;;22.90;12.70;;;;;;;;;;5079207;28;20027;-73
2022/12/13 05:20:50;;;;;;;23.20;12.52;;;;;;;;;;5093209;28;20023;-73
2022/12/13 05:23:36;;;;;;;21.10;11.88;;;;;;;;;;5078845;28;20120;-73
2022/12/13 05:26:21;;;;;;;21.48;12.07;;;;;;;;;;5093062;28;20020;-73
2022/12/13 05:29:07;;;;;;;21.08;11.05;;;;;;;;;;5078685;28;20043;-74
2022/12/13 05:31:52;;;;;;;25.50;13.27;;;;;;;;;;5092569;28;20095;-75
2022/12/13 05:34:38;;;;;;;22.38;12.48;;;;;;;;;;5093425;28;20081;-74
2022/12/13 05:37:24;;;;;;;22.35;12.93;;;;;;;;;;5078311;28;20095;-74
2022/12/13 05:40:09;;;;;;;21.88;11.98;;;;;;;;;;5078233;28;20039;-74
2022/12/13 05:42:55;;;;;;;23.60;12.35;;;;;;;;;;5078447;28;20103;-74
2022/12/13 05:45:41;;;;;;;23.30;12.48;;;;;;;;;;5093416;28;20016;-74
2022/12/13 05:48:26;;;;;;;23.70;12.27;;;;;;;;;;5079670;28;20035;-73
2022/12/13 05:51:12;;;;;;;24.08;12.18;;;;;;;;;;5092966;28;20024;-74
2022/12/13 05:53:57;;;;;;;22.95;13.10;;;;;;;;;;5079065;28;20082;-74
2022/12/13 05:56:43;;;;;;;22.30;12.30;;;;;;;;;;5082584;28;20434;-74
2022/12/13 05:59:28;;;;;;;22.15;11.63;;;;;;;;;;5082127;28;20023;-73
2022/12/13 06:02:16;;;;;;;21.50;12.52;;;;;;;;;;5081477;28;20119;-73
2022/12/13 06:05:02;;;;;;;26.80;13.63;;;;;;;;;;5081411;28;20070;-73
2022/12/13 06:07:47;;;;;;;22.75;12.23;;;;;;;;;;5082378;28;20056;-74
2022/12/13 06:10:33;;;;;;;26.10;13.55;;;;;;;;;;5095682;28;20020;-72
2022/12/13 06:13:18;;;;;;;25.45;13.27;;;;;;;;;;5096262;28;20038;-69
2022/12/13 06:16:04;;;;;;;26.70;13.60;;;;;;;;;;5095487;28;20028;-72
2022/12/13 06:18:51;;;;;;;29.80;13.82;;;;;;;;;;5081923;28;20471;-69
2022/12/13 06:21:37;;;;;;;23.20;13.13;;;;;;;;;;5095958;28;20027;-71
2022/12/13 06:24:23;;;;;;;27.42;14.18;;;;;;;;;;5094857;28;20020;-71
2022/12/13 06:27:08;;;;;;;27.20;13.40;;;;;;;;;;5096200;28;20438;-74
2022/12/13 06:29:54;;;;;;;22.23;12.55;;;;;;;;;;5096204;28;20028;-71
2022/12/13 06:32:40;;;;;;;22.67;13.15;;;;;;;;;;5081627;28;20137;-72
2022/12/13 06:35:25;;;;;;;23.42;12.68;;;;;;;;;;5095904;28;20441;-73
2022/12/13 06:38:12;;;;;;;27.02;13.57;;;;;;;;;;5081489;28;20049;-72
2022/12/13 06:41:07;;;;;;;23.63;13.88;;;;;;;;;;5077817;28;20029;-72
2022/12/13 06:43:53;;;;;;;23.83;13.45;;;;;;;;;;5095875;28;20081;-71
2022/12/13 06:46:38;;;;;;;25.17;13.60;;;;;;;;;;5094812;28;20020;-71
2022/12/13 06:49:24;;;;;;;27.30;13.82;;;;;;;;;;5096516;28;20085;-73
2022/12/13 06:52:13;;;;;;;24.70;13.18;;;;;;;;;;5081438;28;20106;-73
2022/12/13 06:54:59;;;;;;;23.55;13.23;;;;;;;;;;5095739;28;20031;-73
2022/12/13 06:57:44;;;;;;;24.00;12.13;;;;;;;;;;5095980;28;20069;-71
2022/12/13 07:00:30;;;;;;;24.25;13.30;;;;;;;;;;5082135;28;20016;-73
2022/12/13 07:03:16;;;;;;;25.10;13.43;;;;;;;;;;5095452;28;20066;-73
2022/12/13 07:06:06;;;;;;;26.33;14.13;;;;;;;;;;5094985;28;20048;-72
2022/12/13 07:08:55;;;;;;;28.00;13.77;;;;;;;;;;5110383;28;20016;-73
2022/12/13 07:11:41;;;;;;;22.92;13.18;;;;;;;;;;5112397;28;20016;-75
2022/12/13 07:14:26;;;;;;;24.02;12.93;;;;;;;;;;5110022;28;20017;-74
2022/12/13 07:17:12;;;;;;;24.05;13.35;;;;;;;;;;5100811;28;20016;-73
2022/12/13 07:19:57;;;;;;;25.58;14.15;;;;;;;;;;5099765;28;20051;-73
2022/12/13 07:22:43;;;;;;;23.45;13.43;;;;;;;;;;5094195;28;20016;-72
2022/12/13 07:25:29;;;;;;;25.65;14.02;;;;;;;;;;5096053;28;20103;-73
2022/12/13 07:28:15;;;;;;;26.55;14.70;;;;;;;;;;5080714;28;20397;-75
2022/12/13 07:31:01;;;;;;;23.33;13.23;;;;;;;;;;5093894;28;20119;-73
2022/12/13 07:33:46;;;;;;;25.30;13.88;;;;;;;;;;5094255;28;20016;-73
2022/12/13 07:36:32;;;;;;;24.02;13.25;;;;;;;;;;5080387;28;20510;-74
2022/12/13 07:39:18;;;;;;;24.90;14.20;;;;;;;;;;5080113;28;20028;-74
2022/12/13 07:42:03;;;;;;;25.30;15.10;;;;;;;;;;5080455;28;20112;-74
2022/12/13 07:44:49;;;;;;;27.35;13.60;;;;;;;;;;5094071;28;20035;-73
2022/12/13 07:47:34;;;;;;;25.70;14.27;;;;;;;;;;5080801;28;20515;-74
2022/12/13 07:50:20;;;;;;;26.27;14.07;;;;;;;;;;5080450;28;20016;-75
2022/12/13 07:53:06;;;;;;;28.23;14.60;;;;;;;;;;5093594;28;20043;-75
2022/12/13 07:55:52;;;;;;;27.48;15.02;;;;;;;;;;5080287;28;20349;-75
2022/12/13 07:58:39;;;;;;;26.88;15.15;;;;;;;;;;5096590;28;20115;-75
2022/12/13 08:01:25;;;;;;;24.23;14.77;;;;;;;;;;5094893;28;20189;-74
2022/12/13 08:04:10;;;;;;;27.05;14.68;;;;;;;;;;5079067;28;20035;-75
2022/12/13 08:06:56;;;;;;;26.38;15.35;;;;;;;;;;5094224;28;20019;-74
2022/12/13 08:09:41;;;;;;;26.08;15.45;;;;;;;;;;5080549;28;20062;-75
2022/12/13 08:12:27;;;;;;;27.52;15.35;;;;;;;;;;5094131;28;20027;-73
2022/12/13 08:15:13;;;;;;;27.33;16.13;;;;;;;;;;5096416;28;20107;-74
2022/12/13 08:18:02;;;;;;;29.48;16.05;;;;;;;;;;5094270;28;20158;-75
2022/12/13 08:20:48;;;;;;;27.70;15.70;;;;;;;;;;5093921;28;20121;-74
2022/12/13 08:23:34;;;;;;;28.85;16.27;;;;;;;;;;5079180;28;20013;-73
2022/12/13 08:26:19;;;;;;;27.33;15.77;;;;;;;;;;5078914;28;20016;-75
2022/12/13 08:29:05;;;;;;;27.27;14.95;;;;;;;;;;5093757;28;20045;-73
2022/12/13 08:31:50;;;;;;;30.13;15.65;;;;;;;;;;5095519;28;20020;-73
2022/12/13 08:34:36;;;;;;;26.38;15.77;;;;;;;;;;5106764;28;20475;-73
2022/12/13 08:37:21;;;;;;;31.23;17.38;;;;;;;;;;5097015;28;20434;-73
2022/12/13 08:40:08;;;;;;;27.95;16.13;;;;;;;;;;5079495;28;20024;-73
2022/12/13 08:42:54;;;;;;;26.10;15.63;;;;;;;;;;5080426;28;20113;-73
2022/12/13 08:45:40;;;;;;;25.50;15.63;;;;;;;;;;5096616;28;20016;-72
2022/12/13 08:48:25;;;;;;;27.42;15.45;;;;;;;;;;5104350;28;20024;-73
2022/12/13 08:51:12;;;;;;;27.33;16.17;;;;;;;;;;5097123;28;20020;-73
2022/12/13 08:53:57;;;;;;;29.08;17.08;;;;;;;;;;5095684;28;20378;-72
2022/12/13 08:56:43;;;;;;;28.13;16.40;;;;;;;;;;5093087;28;20028;-72
2022/12/13 08:59:28;;;;;;;30.25;17.23;;;;;;;;;;5079338;28;20092;-73
2022/12/13 09:02:15;;;;;;;28.08;17.13;;;;;;;;;;5091937;28;20077;-73
2022/12/13 09:05:00;;;;;;;29.17;16.27;;;;;;;;;;5079603;28;20047;-72
2022/12/13 09:07:47;;;;;;;29.25;16.63;;;;;;;;;;5079378;28;20047;-72
2022/12/13 09:10:33;;;;;;;30.42;17.45;;;;;;;;;;5093005;28;20331;-71
2022/12/13 09:13:18;;;;;;;28.75;15.55;;;;;;;;;;5093461;28;20024;-72
2022/12/13 09:16:05;;;;;;;26.75;15.95;;;;;;;;;;5092734;28;20028;-73
2022/12/13 09:18:51;;;;;;;28.52;16.15;;;;;;;;;;5093055;28;20016;-72
2022/12/13 09:21:37;;;;;;;29.70;16.85;;;;;;;;;;5092696;28;20081;-74
2022/12/13 09:24:22;;;;;;;26.13;15.85;;;;;;;;;;5093174;28;20497;-73
2022/12/13 09:27:09;;;;;;;26.92;15.50;;;;;;;;;;5092631;28;20047;-74
2022/12/13 09:29:56;;;;;;;26.58;15.88;;;;;;;;;;5092765;28;20451;-74
2022/12/13 09:32:48;;;;;;;27.60;15.88;;;;;;;;;;5077725;28;20032;-73
2022/12/13 09:35:36;;;;;;;25.30;15.52;;;;;;;;;;5091827;28;20028;-73
2022/12/13 09:38:22;;;;;;;25.48;15.00;;;;;;;;;;5092534;28;20024;-74
2022/12/13 09:41:27;;;;;;;26.40;15.10;;;;;;;;;;5092934;28;20054;-74
2022/12/13 09:44:12;;;;;;;28.60;15.52;;;;;;;;;;5093789;28;20020;-73
2022/12/13 09:46:59;;;;;;;25.90;14.68;;;;;;;;;;5092664;28;20511;-73
2022/12/13 09:49:45;;;;;;;27.27;15.60;;;;;;;;;;5093797;28;20492;-72
2022/12/13 09:52:36;;;;;;;27.45;15.68;;;;;;;;;;5093060;28;20031;-72
2022/12/13 09:55:31;;;;;;;30.08;16.88;;;;;;;;;;5079054;28;20024;-73
2022/12/13 09:58:19;;;;;;;25.45;15.68;;;;;;;;;;5093023;28;20099;-74
2022/12/13 10:01:05;;;;;;;27.10;15.45;;;;;;;;;;5093759;28;20036;-73
2022/12/13 10:04:00;;;;;;;25.42;15.13;;;;;;;;;;5092731;28;20027;-75
2022/12/13 10:06:46;;;;;;;27.08;15.68;;;;;;;;;;5093918;28;20085;-72
2022/12/13 10:09:32;;;;;;;26.30;15.32;;;;;;;;;;5079058;28;20035;-75
2022/12/13 10:12:17;;;;;;;28.92;15.57;;;;;;;;;;5078404;28;20095;-75
2022/12/13 10:15:03;;;;;;;26.60;15.57;;;;;;;;;;5092761;28;20397;-75
2022/12/13 10:17:49;;;;;;;25.85;15.80;;;;;;;;;;5077525;28;20020;-74
2022/12/13 10:20:36;;;;;;;28.23;15.90;;;;;;;;;;5092617;28;20078;-74
2022/12/13 10:23:21;;;;;;;29.85;16.45;;;;;;;;;;5078589;28;20468;-75
2022/12/13 10:26:09;;;;;;;24.85;15.30;;;;;;;;;;5096801;28;20024;-75
2022/12/13 10:29:02;;;;;;;24.33;16.05;;;;;;;;;;5078399;28;20462;-76
2022/12/13 10:31:50;;;;;;;25.65;15.18;;;;;;;;;;5092317;28;20060;-75
2022/12/13 10:34:36;;;;;;;26.15;15.10;;;;;;;;;;5092540;28;20020;-76
2022/12/13 10:37:21;;;;;;;25.52;15.45;;;;;;;;;;5077882;28;20016;-74
2022/12/13 10:40:21;;;;;;;26.33;16.35;;;;;;;;;;5078797;28;20027;-75
2022/12/13 10:43:14;;;;;;;24.80;14.75;;;;;;;;;;5095882;28;20031;-74
2022/12/13 10:46:02;;;;;;;27.95;15.27;;;;;;;;;;5097057;28;20046;-74
2022/12/13 10:48:48;;;;;;;25.33;15.43;;;;;;;;;;5082392;28;20059;-74
2022/12/13 10:51:38;;;;;;;23.98;14.57;;;;;;;;;;5095755;28;20527;-73
2022/12/13 10:54:31;;;;;;;25.85;15.52;;;;;;;;;;5095150;28;20085;-74
2022/12/13 10:57:17;;;;;;;26.73;14.85;;;;;;;;;;5081507;28;20016;-74
2022/12/13 11:00:23;;;;;;;24.98;14.68;;;;;;;;;;5080503;28;20438;-73
2022/12/13 11:03:11;;;;;;;24.48;14.15;;;;;;;;;;5095567;28;20474;-74
2022/12/13 11:06:04;;;;;;;24.67;14.73;;;;;;;;;;5095191;28;20437;-73
2022/12/13 11:08:51;;;;;;;26.95;14.63;;;;;;;;;;5096312;28;20029;-73
2022/12/13 11:11:37;;;;;;;25.75;14.45;;;;;;;;;;5095324;28;20394;-73
2022/12/13 11:14:24;;;;;;;25.08;15.23;;;;;;;;;;5080148;28;20020;-75
2022/12/13 11:17:15;;;;;;;25.05;15.60;;;;;;;;;;5096889;28;20016;-73
2022/12/13 11:20:05;;;;;;;26.50;15.40;;;;;;;;;;5102592;28;20012;-74
2022/12/13 11:23:03;;;;;;;27.20;14.32;;;;;;;;;;5098015;28;20031;-74
2022/12/13 11:25:53;;;;;;;22.52;13.50;;;;;;;;;;5080429;28;20023;-73
2022/12/13 11:28:39;;;;;;;24.67;14.00;;;;;;;;;;5095875;28;20027;-72
2022/12/13 11:31:40;;;;;;;24.13;13.93;;;;;;;;;;5095235;28;20089;-72
2022/12/13 11:34:42;;;;;;;22.98;14.00;;;;;;;;;;5096076;28;20047;-73
2022/12/13 11:37:34;;;;;;;24.75;14.75;;;;;;;;;;5080723;28;20016;-72
2022/12/13 11:40:23;;;;;;;22.38;13.70;;;;;;;;;;5097765;28;20016;-72
2022/12/13 11:43:28;;;;;;;23.63;13.68;;;;;;;;;;5095431;28;20103;-74
2022/12/13 11:46:19;;;;;;;24.33;14.98;;;;;;;;;;5080183;28;20035;-73
2022/12/13 11:49:16;;;;;;;25.45;14.52;;;;;;;;;;5095522;28;20395;-72
2022/12/13 11:52:15;;;;;;;23.00;14.10;;;;;;;;;;5093935;28;20047;-73
2022/12/13 11:55:04;;;;;;;26.45;15.52;;;;;;;;;;5094701;28;20052;-73
2022/12/13 11:57:57;;;;;;;24.40;14.15;;;;;;;;;;5095034;28;20008;-74
2022/12/13 12:00:44;;;;;;;21.02;14.32;;;;;;;;;;5094522;28;20024;-74
2022/12/13 12:03:30;;;;;;;24.27;14.50;;;;;;;;;;5095231;28;20024;-74
2022/12/13 12:06:27;;;;;;;24.92;14.90;;;;;;;;;;5079168;28;20444;-76
2022/12/13 12:09:14;;;;;;;24.52;14.38;;;;;;;;;;5095319;28;20019;-75
2022/12/13 12:12:02;;;;;;;28.00;15.73;;;;;;;;;;5094225;28;20107;-74
2022/12/13 12:14:51;;;;;;;25.73;15.15;;;;;;;;;;5094254;28;20020;-74
2022/12/13 12:17:36;;;;;;;24.85;13.98;;;;;;;;;;5079706;28;20012;-74
2022/12/13 12:20:39;;;;;;;24.85;15.20;;;;;;;;;;5094251;28;20414;-74
2022/12/13 12:23:45;;;;;;;23.90;14.15;;;;;;;;;;5093682;28;20411;-74
2022/12/13 12:26:44;;;;;;;23.10;14.00;;;;;;;;;;5053360;28;20028;-73
2022/12/13 12:29:30;;;;;;;24.65;14.20;;;;;;;;;;5094281;28;20024;-74
2022/12/13 12:32:27;;;;;;;24.52;15.00;;;;;;;;;;5094023;28;20024;-74
2022/12/13 12:35:18;;;;;;;22.08;14.00;;;;;;;;;;5093812;28;20028;-74
2022/12/13 12:38:09;;;;;;;23.88;14.02;;;;;;;;;;5094040;28;20016;-75
2022/12/13 12:40:55;;;;;;;23.10;14.40;;;;;;;;;;5093979;28;20366;-74
2022/12/13 12:43:42;;;;;;;27.58;15.52;;;;;;;;;;5093820;28;20021;-76
2022/12/13 12:46:27;;;;;;;23.90;13.70;;;;;;;;;;5094658;28;20028;-74
2022/12/13 12:49:26;;;;;;;27.75;13.80;;;;;;;;;;5094101;28;20016;-75
2022/12/13 12:52:21;;;;;;;23.38;13.48;;;;;;;;;;5094244;28;20024;-74
2022/12/13 12:55:15;;;;;;;26.02;14.85;;;;;;;;;;5079344;28;20020;-73
2022/12/13 12:58:07;;;;;;;26.30;15.10;;;;;;;;;;5093888;28;20016;-72
2022/12/13 13:01:01;;;;;;;23.92;14.27;;;;;;;;;;5093397;28;20016;-73
2022/12/13 13:03:49;;;;;;;23.30;14.00;;;;;;;;;;5093591;28;20020;-74
2022/12/13 13:06:47;;;;;;;20.95;13.20;;;;;;;;;;5093556;28;20055;-74
2022/12/13 13:09:33;;;;;;;23.52;14.35;;;;;;;;;;5093688;28;20012;-74
2022/12/13 13:12:19;;;;;;;23.65;13.93;;;;;;;;;;5079984;28;20031;-74
2022/12/13 13:15:42;;;;;;;24.58;14.32;;;;;;;;;;5094370;28;20020;-74
2022/12/13 13:18:46;;;;;;;24.80;15.02;;;;;;;;;;5079788;28;20338;-73
2022/12/13 13:21:33;;;;;;;24.67;14.43;;;;;;;;;;5093996;28;20115;-75
2022/12/13 13:24:22;;;;;;;21.98;13.43;;;;;;;;;;5092983;28;20024;-74
2022/12/13 13:27:07;;;;;;;23.00;13.65;;;;;;;;;;5093564;28;20032;-73
2022/12/13 13:30:03;;;;;;;26.13;15.55;;;;;;;;;;5092688;28;20070;-74
2022/12/13 13:32:50;;;;;;;27.67;15.57;;;;;;;;;;5093522;28;20024;-75
2022/12/13 13:35:54;;;;;;;22.52;13.30;;;;;;;;;;5078047;28;20098;-76
2022/12/13 13:38:50;;;;;;;23.60;14.00;;;;;;;;;;5093272;28;20024;-74
2022/12/13 13:41:55;;;;;;;24.13;14.30;;;;;;;;;;5080197;28;20129;-73
2022/12/13 13:44:44;;;;;;;25.60;14.15;;;;;;;;;;5093576;28;20028;-74
2022/12/13 13:47:37;;;;;;;24.33;13.95;;;;;;;;;;5078331;28;20501;-74
2022/12/13 13:50:38;;;;;;;22.20;13.68;;;;;;;;;;5092776;28;20024;-74
2022/12/13 13:53:39;;;;;;;22.83;13.60;;;;;;;;;;5080205;28;20331;-74
2022/12/13 13:56:24;;;;;;;25.67;14.15;;;;;;;;;;5092674;28;20432;-75
2022/12/13 13:59:22;;;;;;;21.70;13.10;;;;;;;;;;5093265;28;20024;-75
2022/12/13 14:02:26;;;;;;;24.15;13.68;;;;;;;;;;5093261;28;20091;-74
2022/12/13 14:05:24;;;;;;;22.83;14.10;;;;;;;;;;5079253;28;20021;-74
2022/12/13 14:08:18;;;;;;;23.77;14.23;;;;;;;;;;5078117;28;20422;-74
2022/12/13 14:11:07;;;;;;;25.77;14.50;;;;;;;;;;5092667;28;20028;-73
2022/12/13 14:13:55;;;;;;;24.48;14.52;;;;;;;;;;5078214;28;20024;-74
2022/12/13 14:16:47;;;;;;;24.23;14.13;;;;;;;;;;5081173;28;20020;-74
2022/12/13 14:19:42;;;;;;;24.35;14.05;;;;;;;;;;5096619;28;20442;-73
2022/12/13 14:22:27;;;;;;;24.17;14.23;;;;;;;;;;5096404;28;20094;-74
2022/12/13 14:25:22;;;;;;;23.73;14.98;;;;;;;;;;5096655;28;20024;-74
2022/12/13 14:28:23;;;;;;;22.65;14.38;;;;;;;;;;5096558;28;20038;-74
2022/12/13 14:31:12;;;;;;;23.95;14.93;;;;;;;;;;5095791;28;20026;-73
2022/12/13 14:33:58;;;;;;;27.10;15.40;;;;;;;;;;5083160;28;20103;-74
2022/12/13 14:36:52;;;;;;;28.45;15.70;;;;;;;;;;5096447;28;20101;-73
2022/12/13 14:39:43;;;;;;;27.02;16.05;;;;;;;;;;5096062;28;20456;-74
2022/12/13 14:42:33;;;;;;;28.25;16.23;;;;;;;;;;5081964;28;20031;-73
2022/12/13 14:45:28;;;;;;;28.27;15.65;;;;;;;;;;5099999;28;20173;-73
2022/12/13 14:48:14;;;;;;;29.38;16.73;;;;;;;;;;5112588;28;20051;-73
2022/12/13 14:51:00;;;;;;;26.60;15.95;;;;;;;;;;5097757;28;20031;-73
2022/12/13 14:53:51;;;;;;;27.63;15.88;;;;;;;;;;5099731;28;20024;-71
2022/12/13 14:56:52;;;;;;;27.38;16.33;;;;;;;;;;5101504;28;20024;-72
2022/12/13 14:59:43;;;;;;;26.95;16.40;;;;;;;;;;5084879;28;20020;-74
2022/12/13 15:02:30;;;;;;;28.92;16.90;;;;;;;;;;5099284;28;20036;-75
2022/12/13 15:05:22;;;;;;;29.70;17.63;;;;;;;;;;5083209;28;20446;-72
2022/12/13 15:08:08;;;;;;;29.45;17.17;;;;;;;;;;5098480;28;20093;-72
2022/12/13 15:10:58;;;;;;;31.60;17.50;;;;;;;;;;5097252;28;20339;-73
2022/12/13 15:13:47;;;;;;;26.98;16.55;;;;;;;;;;5097107;28;20028;-73
2022/12/13 15:16:32;;;;;;;30.52;17.20;;;;;;;;;;5096309;28;20454;-73
2022/12/13 15:19:20;;;;;;;28.92;16.67;;;;;;;;;;5095281;28;20024;-75
2022/12/13 15:22:12;;;;;;;29.52;17.25;;;;;;;;;;5095338;28;20025;-72
2022/12/13 15:24:58;;;;;;;29.48;17.95;;;;;;;;;;5095371;28;20023;-73
2022/12/13 15:27:45;;;;;;;32.65;17.95;;;;;;;;;;5094347;28;20364;-73
2022/12/13 15:30:33;;;;;;;33.03;17.85;;;;;;;;;;5067833;28;20020;-73
2022/12/13 15:33:23;;;;;;;34.63;19.08;;;;;;;;;;5081751;28;20058;-73
2022/12/13 15:36:26;;;;;;;31.60;18.67;;;;;;;;;;5081707;28;20088;-73
2022/12/13 15:39:11;;;;;;;28.33;17.20;;;;;;;;;;5095462;28;20016;-73
2022/12/13 15:41:57;;;;;;;32.65;18.08;;;;;;;;;;5096505;28;20407;-73
2022/12/13 15:44:49;;;;;;;28.50;16.20;;;;;;;;;;5088457;28;20107;-73
2022/12/13 15:47:34;;;;;;;27.77;16.13;;;;;;;;;;5090744;28;20034;-73
2022/12/13 15:50:29;;;;;;;30.55;16.20;;;;;;;;;;5107831;28;20012;-73
2022/12/13 15:53:25;;;;;;;30.00;16.88;;;;;;;;;;5103274;28;20031;-73
2022/12/13 15:56:26;;;;;;;31.05;17.90;;;;;;;;;;5100680;28;20396;-74
2022/12/13 15:59:29;;;;;;;54.75;26.40;;;;;;;;;;5089218;28;20080;-74
2022/12/13 16:02:22;;;;;;;48.55;24.42;;;;;;;;;;5084314;28;20047;-73
2022/12/13 16:05:09;;;;;;;31.55;18.13;;;;;;;;;;5092543;28;20464;-73
2022/12/13 16:07:55;;;;;;;33.05;18.20;;;;;;;;;;5099392;28;20050;-73
2022/12/13 16:10:48;;;;;;;31.45;18.08;;;;;;;;;;5096496;28;20408;-73
2022/12/13 16:13:35;;;;;;;32.63;17.92;;;;;;;;;;5096507;28;20051;-72
2022/12/13 16:16:30;;;;;;;32.00;17.58;;;;;;;;;;5080183;28;20031;-73
2022/12/13 16:19:19;;;;;;;32.60;18.00;;;;;;;;;;5093166;28;20445;-73
2022/12/13 16:22:04;;;;;;;31.25;17.98;;;;;;;;;;5093610;28;20032;-74
2022/12/13 16:24:50;;;;;;;29.70;17.40;;;;;;;;;;5094134;28;20357;-72
2022/12/13 16:27:36;;;;;;;32.95;17.98;;;;;;;;;;5094408;28;20115;-72